createdAt,value
2017-11-30T00:01:16.260Z,12.10
2017-11-30T00:03:42.869Z,12.33
2017-11-30T00:06:09.465Z,11.70
2017-11-30T00:08:36.059Z,11.90
2017-11-30T00:11:02.669Z,12.30
2017-11-30T00:13:29.250Z,12.50
2017-11-30T00:15:55.835Z,12.10
2017-11-30T00:18:22.448Z,12.63
2017-11-30T00:20:49.040Z,12.07
2017-11-30T00:23:15.635Z,12.47
2017-11-30T00:25:42.231Z,12.20
2017-11-30T00:28:08.831Z,12.60
2017-11-30T00:30:35.420Z,12.33
2017-11-30T00:33:02.027Z,12.30
2017-11-30T00:35:28.619Z,12.40
2017-11-30T00:37:55.227Z,11.43
2017-11-30T00:40:21.835Z,12.30
2017-11-30T00:42:54.270Z,12.07
2017-11-30T00:45:20.855Z,12.00
2017-11-30T00:47:47.451Z,12.10
2017-11-30T00:50:14.044Z,12.20
2017-11-30T00:52:40.651Z,11.90
2017-11-30T00:55:07.244Z,11.60
2017-11-30T00:57:33.834Z,11.97
2017-11-30T01:00:00.447Z,11.43
2017-11-30T01:02:27.037Z,13.30
2017-11-30T01:04:53.632Z,14.90
2017-11-30T01:07:20.235Z,14.10
2017-11-30T01:09:46.833Z,14.33
2017-11-30T01:12:13.426Z,14.17
2017-11-30T01:14:40.047Z,13.03
2017-11-30T01:17:06.683Z,13.20
2017-11-30T01:19:33.333Z,12.90
2017-11-30T01:21:59.961Z,12.80
2017-11-30T01:24:26.554Z,11.50
2017-11-30T01:26:53.228Z,11.97
2017-11-30T01:29:19.823Z,11.77
2017-11-30T01:32:03.750Z,12.87
2017-11-30T01:34:30.355Z,13.20
2017-11-30T01:36:56.934Z,13.50
2017-11-30T01:39:23.519Z,12.07
2017-11-30T01:41:50.107Z,12.43
2017-11-30T01:44:16.695Z,12.43
2017-11-30T01:46:43.281Z,13.30
2017-11-30T01:49:09.866Z,12.80
2017-11-30T01:51:36.442Z,12.63
2017-11-30T01:54:03.033Z,13.53
2017-11-30T01:56:29.725Z,12.90
2017-11-30T01:58:56.293Z,12.67
2017-11-30T02:01:22.873Z,12.87
2017-11-30T02:03:49.453Z,12.10
2017-11-30T02:06:16.039Z,13.07
2017-11-30T02:08:42.631Z,12.73
2017-11-30T02:11:09.226Z,12.23
2017-11-30T02:13:35.815Z,12.63
2017-11-30T02:16:02.394Z,12.40
2017-11-30T02:18:28.978Z,12.77
2017-11-30T02:20:55.563Z,13.17
2017-11-30T02:23:22.164Z,12.60
2017-11-30T02:25:48.742Z,13.63
2017-11-30T02:28:15.328Z,13.83
2017-11-30T02:30:41.922Z,12.20
2017-11-30T02:33:08.511Z,12.63
2017-11-30T02:35:35.125Z,12.00
2017-11-30T02:38:01.718Z,13.17
2017-11-30T02:40:28.298Z,12.60
2017-11-30T02:42:54.890Z,12.13
2017-11-30T02:45:21.472Z,13.57
2017-11-30T02:47:48.079Z,12.30
2017-11-30T02:50:14.659Z,12.83
2017-11-30T02:52:41.275Z,12.37
2017-11-30T02:55:07.870Z,12.80
2017-11-30T02:57:34.459Z,12.70
2017-11-30T03:00:01.087Z,12.70
2017-11-30T03:02:27.679Z,13.57
2017-11-30T03:04:54.266Z,13.47
2017-11-30T03:07:20.876Z,14.27
2017-11-30T03:09:47.450Z,13.60
2017-11-30T03:12:14.066Z,13.80
2017-11-30T03:42:00.631Z,15.83
2017-11-30T03:44:27.232Z,16.13
2017-11-30T03:46:53.816Z,16.60
2017-11-30T03:49:20.420Z,16.10
2017-11-30T03:51:47.003Z,15.17
2017-11-30T03:54:13.593Z,14.43
2017-11-30T03:56:40.213Z,15.93
2017-11-30T03:59:06.805Z,16.17
2017-11-30T04:01:33.391Z,16.87
2017-11-30T04:04:00.022Z,17.53
2017-11-30T04:06:26.605Z,17.40
2017-11-30T04:08:53.191Z,17.23
2017-11-30T04:11:19.820Z,18.70
2017-11-30T04:13:46.405Z,19.43
2017-11-30T04:16:12.994Z,18.17
2017-11-30T04:18:39.591Z,20.27
2017-11-30T04:21:06.264Z,18.50
2017-11-30T04:23:32.890Z,20.27
2017-11-30T04:25:59.508Z,19.97
2017-11-30T04:28:26.095Z,20.17
2017-11-30T04:30:52.688Z,20.37
2017-11-30T04:33:19.302Z,19.43
2017-11-30T04:35:45.895Z,18.90
2017-11-30T04:38:12.480Z,19.70
2017-11-30T04:40:39.113Z,18.67
2017-11-30T04:43:05.698Z,19.73
2017-11-30T04:45:32.302Z,20.00
2017-11-30T04:47:58.915Z,18.20
2017-11-30T04:50:25.508Z,19.00
2017-11-30T04:52:52.096Z,18.90
2017-11-30T04:55:18.715Z,18.70
2017-11-30T04:57:45.300Z,18.87
2017-11-30T05:00:11.931Z,18.70
2017-11-30T05:02:38.542Z,19.70
2017-11-30T05:05:05.140Z,18.07
2017-11-30T05:07:31.747Z,17.67
2017-11-30T05:09:58.356Z,18.30
2017-11-30T05:12:24.949Z,18.73
2017-11-30T05:14:51.535Z,18.47
2017-11-30T05:17:18.147Z,18.70
2017-11-30T05:19:44.761Z,19.27
2017-11-30T05:22:11.347Z,19.80
2017-11-30T05:24:37.961Z,20.87
2017-11-30T05:27:04.590Z,20.27
2017-11-30T05:29:31.179Z,21.80
2017-11-30T05:31:57.777Z,19.33
2017-11-30T05:34:24.370Z,19.80
2017-11-30T05:36:50.987Z,19.97
2017-11-30T05:39:17.607Z,20.17
2017-11-30T05:41:44.212Z,22.07
2017-11-30T05:44:10.807Z,21.70
2017-11-30T05:46:37.415Z,22.17
2017-11-30T05:49:04.006Z,21.47
2017-11-30T05:51:30.591Z,20.97
2017-11-30T05:53:57.200Z,21.90
2017-11-30T05:56:23.788Z,22.50
2017-11-30T05:58:50.384Z,21.00
2017-11-30T06:01:16.999Z,20.90
2017-11-30T06:03:43.592Z,20.07
2017-11-30T06:06:10.187Z,19.77
2017-11-30T06:08:36.799Z,19.80
2017-11-30T06:11:03.395Z,20.73
2017-11-30T06:13:29.980Z,20.80
2017-11-30T06:15:56.581Z,20.77
2017-11-30T06:18:23.176Z,19.80
2017-11-30T06:20:49.775Z,20.50
2017-11-30T06:23:16.373Z,19.97
2017-11-30T06:25:42.969Z,20.10
2017-11-30T06:28:09.563Z,20.50
2017-11-30T06:30:36.164Z,20.23
2017-11-30T06:33:02.761Z,19.83
2017-11-30T06:35:29.343Z,18.73
2017-11-30T06:37:55.951Z,19.03
2017-11-30T06:40:22.547Z,19.80
2017-11-30T06:42:49.164Z,19.63
2017-11-30T06:45:15.763Z,18.60
2017-11-30T06:47:42.356Z,19.07
2017-11-30T06:50:08.950Z,19.77
2017-11-30T06:52:35.591Z,20.07
2017-11-30T06:55:02.164Z,19.60
2017-11-30T06:57:28.754Z,20.00
2017-11-30T06:59:55.364Z,19.70
2017-11-30T07:02:21.958Z,20.03
2017-11-30T07:04:48.546Z,20.17
2017-11-30T07:07:15.155Z,19.63
2017-11-30T07:09:41.744Z,20.90
2017-11-30T07:12:08.368Z,20.50
2017-11-30T07:14:34.987Z,20.83
2017-11-30T07:17:01.572Z,23.10
2017-11-30T07:19:28.171Z,25.07
2017-11-30T07:21:54.796Z,22.93
2017-11-30T07:24:21.391Z,21.90
2017-11-30T07:26:47.995Z,21.33
2017-11-30T07:29:14.615Z,20.17
2017-11-30T07:31:41.212Z,20.23
2017-11-30T07:34:09.123Z,20.80
2017-11-30T07:36:35.796Z,18.80
2017-11-30T07:39:02.385Z,19.60
2017-11-30T07:41:28.969Z,19.93
2017-11-30T07:43:55.598Z,21.00
2017-11-30T07:46:22.179Z,19.60
2017-11-30T07:48:48.771Z,19.90
2017-11-30T07:51:15.382Z,19.00
2017-11-30T07:53:41.971Z,20.07
2017-11-30T07:56:08.566Z,19.20
2017-11-30T07:58:35.168Z,20.27
2017-11-30T08:01:01.760Z,19.93
2017-11-30T08:03:28.352Z,20.30
2017-11-30T08:05:54.955Z,19.40
2017-11-30T08:08:21.539Z,17.93
2017-11-30T08:10:48.144Z,19.50
2017-11-30T08:13:14.759Z,20.63
2017-11-30T08:15:41.351Z,19.17
2017-11-30T08:18:07.952Z,18.07
2017-11-30T08:20:34.568Z,19.03
2017-11-30T08:23:01.178Z,17.97
2017-11-30T08:25:27.771Z,17.40
2017-11-30T08:27:54.368Z,18.30
2017-11-30T08:30:20.964Z,17.80
2017-11-30T08:32:47.578Z,17.40
2017-11-30T08:35:14.165Z,17.30
2017-11-30T08:37:40.772Z,18.27
2017-11-30T08:40:07.347Z,18.90
2017-11-30T08:42:33.974Z,19.00
2017-11-30T08:45:00.641Z,21.80
2017-11-30T08:47:27.219Z,22.50
2017-11-30T08:49:53.843Z,20.83
2017-11-30T08:52:20.442Z,18.63
2017-11-30T08:54:47.052Z,18.90
2017-11-30T08:57:13.655Z,17.90
2017-11-30T08:59:40.251Z,18.30
2017-11-30T09:02:06.857Z,18.70
2017-11-30T09:04:33.448Z,19.13
2017-11-30T09:07:00.036Z,19.20
2017-11-30T09:09:26.627Z,18.60
2017-11-30T09:11:53.227Z,19.07
2017-11-30T09:14:19.820Z,17.97
2017-11-30T09:16:46.407Z,18.40
2017-11-30T09:19:13.014Z,17.10
2017-11-30T09:21:39.604Z,17.20
2017-11-30T09:24:06.193Z,17.60
2017-11-30T09:26:32.792Z,18.97
2017-11-30T09:28:59.434Z,19.70
2017-11-30T09:31:26.019Z,20.30
2017-11-30T09:33:52.625Z,17.87
2017-11-30T09:36:19.211Z,18.97
2017-11-30T09:38:45.807Z,18.60
2017-11-30T09:41:12.415Z,20.33
2017-11-30T09:43:39.035Z,20.37
2017-11-30T09:46:05.620Z,19.53
2017-11-30T09:48:32.230Z,21.17
2017-11-30T09:50:58.803Z,21.80
2017-11-30T09:53:25.392Z,22.23
2017-11-30T09:55:51.993Z,22.97
2017-11-30T09:58:18.583Z,22.93
2017-11-30T10:00:45.179Z,20.03
2017-11-30T10:03:11.786Z,21.00
2017-11-30T10:05:38.373Z,20.73
2017-11-30T10:08:04.963Z,19.43
2017-11-30T10:10:31.588Z,19.00
2017-11-30T10:12:58.181Z,18.63
2017-11-30T10:15:24.774Z,18.70
2017-11-30T10:17:51.388Z,19.80
2017-11-30T10:20:17.984Z,19.60
2017-11-30T10:22:44.568Z,20.13
2017-11-30T10:25:11.172Z,19.57
2017-11-30T10:27:37.772Z,19.40
2017-11-30T10:30:04.364Z,18.67
2017-11-30T10:32:31.040Z,19.33
2017-11-30T10:34:58.192Z,18.30
2017-11-30T10:37:24.792Z,18.40
2017-11-30T10:39:51.410Z,17.87
2017-11-30T10:42:17.999Z,18.57
2017-11-30T10:44:44.588Z,18.27
2017-11-30T10:47:11.208Z,18.40
2017-11-30T10:49:37.808Z,18.10
2017-11-30T10:52:04.392Z,20.80
2017-11-30T10:54:31.000Z,21.93
2017-11-30T10:56:57.604Z,19.70
2017-11-30T10:59:24.191Z,20.27
2017-11-30T11:01:50.799Z,17.97
2017-11-30T11:04:17.401Z,19.00
2017-11-30T11:06:43.991Z,17.93
2017-11-30T11:09:10.601Z,18.03
2017-11-30T11:11:37.229Z,19.00
2017-11-30T11:14:03.854Z,18.63
2017-11-30T11:16:30.527Z,16.20
2017-11-30T11:18:57.124Z,16.30
2017-11-30T11:21:23.712Z,13.97
2017-11-30T11:23:50.315Z,12.73
2017-11-30T11:26:16.995Z,12.00
2017-11-30T11:28:43.634Z,11.97
2017-11-30T11:31:10.230Z,11.63
2017-11-30T11:33:36.835Z,11.00
2017-11-30T11:36:03.425Z,10.63
2017-11-30T11:41:03.180Z,11.33
2017-11-30T11:43:29.783Z,12.17
2017-11-30T11:45:56.376Z,11.40
2017-11-30T11:48:22.955Z,12.30
2017-11-30T11:50:49.592Z,12.80
2017-11-30T11:53:16.180Z,12.00
2017-11-30T11:55:42.784Z,12.07
2017-11-30T11:58:09.394Z,12.13
2017-11-30T12:00:36.010Z,12.00
2017-11-30T12:03:02.596Z,12.73
2017-11-30T12:05:29.203Z,12.87
2017-11-30T12:07:55.791Z,13.33
2017-11-30T12:10:22.385Z,14.10
2017-11-30T12:12:49.012Z,13.20
2017-11-30T12:15:15.612Z,12.73
2017-11-30T12:17:42.208Z,12.03
2017-11-30T12:20:08.840Z,12.13
2017-11-30T12:22:35.424Z,12.40
2017-11-30T12:25:02.021Z,12.23
2017-11-30T12:27:28.627Z,12.80
2017-11-30T12:29:55.227Z,11.70
2017-11-30T12:32:23.347Z,11.90
2017-11-30T12:34:49.952Z,11.63
2017-11-30T12:37:16.539Z,12.20
2017-11-30T12:39:43.129Z,12.33
2017-11-30T12:42:09.733Z,12.27
2017-11-30T12:44:36.331Z,12.00
2017-11-30T12:47:02.919Z,12.40
2017-11-30T12:49:29.529Z,12.40
2017-11-30T12:51:56.119Z,11.83
2017-11-30T12:54:22.711Z,11.90
2017-11-30T12:56:49.315Z,11.63
2017-11-30T12:59:15.906Z,10.40
2017-11-30T13:01:42.674Z,11.43
2017-11-30T13:04:09.266Z,7.07
2017-11-30T13:06:35.856Z,6.73
2017-11-30T13:09:02.437Z,6.63
2017-11-30T13:11:29.031Z,5.93
2017-11-30T13:13:55.617Z,5.90
2017-11-30T13:16:22.218Z,6.40
2017-11-30T13:18:48.809Z,6.90
2017-11-30T13:21:15.394Z,5.57
2017-11-30T13:23:41.975Z,5.53
2017-11-30T13:26:08.575Z,5.70
2017-11-30T13:28:35.179Z,5.37
2017-11-30T13:31:01.766Z,5.93
2017-11-30T13:33:28.455Z,6.30
2017-11-30T13:35:55.019Z,6.13
2017-11-30T13:38:21.614Z,6.53
2017-11-30T13:40:48.206Z,6.20
2017-11-30T13:43:14.781Z,5.93
2017-11-30T13:45:41.366Z,5.57
2017-11-30T13:48:07.967Z,6.73
2017-11-30T13:50:34.544Z,6.73
2017-11-30T13:53:01.135Z,6.90
2017-11-30T13:55:27.717Z,6.60
2017-11-30T13:57:54.303Z,7.00
2017-11-30T14:00:20.892Z,6.63
2017-11-30T14:02:47.497Z,6.70
2017-11-30T14:05:14.078Z,5.90
2017-11-30T14:07:40.674Z,6.27
2017-11-30T14:10:07.321Z,6.23
2017-11-30T14:12:33.906Z,7.50
2017-11-30T14:15:00.499Z,5.93
2017-11-30T14:17:27.097Z,6.10
2017-11-30T14:19:53.687Z,6.73
2017-11-30T14:22:20.274Z,6.80
2017-11-30T14:24:46.864Z,6.00
2017-11-30T14:27:13.447Z,5.47
2017-11-30T14:29:40.034Z,5.40
2017-11-30T14:32:06.631Z,5.00
2017-11-30T14:34:33.255Z,4.90
2017-11-30T14:36:59.805Z,5.17
2017-11-30T14:39:26.394Z,5.67
2017-11-30T14:41:52.975Z,5.80
2017-11-30T14:44:19.554Z,6.70
2017-11-30T14:46:46.230Z,6.57
2017-11-30T14:49:12.785Z,7.03
2017-11-30T14:51:39.379Z,6.40
2017-11-30T14:54:05.969Z,7.30
2017-11-30T14:56:32.558Z,6.67
2017-11-30T14:58:59.141Z,6.80
2017-11-30T15:01:25.737Z,7.90
2017-11-30T15:03:52.349Z,7.50
2017-11-30T15:06:18.926Z,7.40
2017-11-30T15:08:45.522Z,7.40
2017-11-30T15:11:12.117Z,7.93
2017-11-30T15:13:38.698Z,7.60
2017-11-30T15:16:05.295Z,7.17
2017-11-30T15:18:31.885Z,7.80
2017-11-30T15:20:58.485Z,8.60
2017-11-30T15:23:25.094Z,9.43
2017-11-30T15:25:51.678Z,9.40
2017-11-30T15:28:18.266Z,9.97
2017-11-30T15:30:44.868Z,10.43
2017-11-30T15:33:11.454Z,9.90
2017-11-30T15:35:38.066Z,10.83
2017-11-30T15:38:04.718Z,11.03
2017-11-30T15:40:31.313Z,11.60
2017-11-30T15:42:57.901Z,11.00
2017-11-30T15:45:24.516Z,11.17
2017-11-30T15:47:51.110Z,12.00
2017-11-30T15:50:17.698Z,11.60
2017-11-30T15:52:44.311Z,10.87
2017-11-30T15:55:10.906Z,11.40
2017-11-30T15:57:37.510Z,11.40
2017-11-30T16:00:04.118Z,12.10
2017-11-30T16:02:30.714Z,11.40
2017-11-30T16:04:57.308Z,12.07
2017-11-30T16:07:23.927Z,12.07
2017-11-30T16:09:50.514Z,12.20
2017-11-30T16:12:17.099Z,11.90
2017-11-30T16:14:43.706Z,13.40
2017-11-30T16:17:10.303Z,11.30
2017-11-30T16:19:36.894Z,12.93
2017-11-30T16:22:03.489Z,12.10
2017-11-30T16:24:30.096Z,13.33
2017-11-30T16:26:56.677Z,14.17
2017-11-30T16:29:23.299Z,14.50
2017-11-30T16:31:49.879Z,14.87
2017-11-30T16:34:16.479Z,13.70
2017-11-30T16:36:43.101Z,13.17
2017-11-30T16:39:09.704Z,13.13
2017-11-30T16:41:36.351Z,14.23
2017-11-30T16:44:02.942Z,13.70
2017-11-30T16:46:29.530Z,14.20
2017-11-30T16:48:56.122Z,14.83
2017-11-30T16:51:22.721Z,14.20
2017-11-30T16:53:49.322Z,15.00
2017-11-30T16:56:21.714Z,12.80
2017-11-30T16:58:48.317Z,13.10
2017-11-30T17:01:14.910Z,14.20
2017-11-30T17:03:41.518Z,12.63
2017-11-30T17:06:08.114Z,12.20
2017-11-30T17:08:34.715Z,12.67
2017-11-30T17:11:01.302Z,12.90
2017-11-30T17:13:27.929Z,12.87
2017-11-30T17:15:54.523Z,13.33
2017-11-30T17:18:21.114Z,13.47
2017-11-30T17:20:47.751Z,14.83
2017-11-30T17:23:14.330Z,16.37
2017-11-30T17:25:40.928Z,17.80
2017-11-30T17:28:07.534Z,14.97
2017-11-30T17:30:34.122Z,13.33
2017-11-30T17:33:00.718Z,13.47
2017-11-30T17:35:27.322Z,12.00
2017-11-30T17:37:53.931Z,11.13
2017-11-30T17:40:20.566Z,11.40
2017-11-30T17:42:47.161Z,12.00
2017-11-30T17:45:13.745Z,12.33
2017-11-30T17:47:40.342Z,12.10
2017-11-30T17:50:06.956Z,14.50
2017-11-30T17:52:33.542Z,14.77
2017-11-30T17:55:00.136Z,13.53
2017-11-30T17:57:26.738Z,14.97
2017-11-30T17:59:53.350Z,15.00
2017-11-30T18:02:19.962Z,14.50
2017-11-30T18:04:46.571Z,14.07
2017-11-30T18:07:13.167Z,13.63
2017-11-30T18:09:39.746Z,14.80
2017-11-30T18:12:06.379Z,15.43
2017-11-30T18:14:32.976Z,14.17
2017-11-30T18:16:59.570Z,14.60
2017-11-30T18:19:26.190Z,14.30
2017-11-30T18:21:52.783Z,14.40
2017-11-30T18:24:19.423Z,14.87
2017-11-30T18:26:46.113Z,15.20
2017-11-30T18:29:12.717Z,16.07
2017-11-30T18:31:39.312Z,16.37
2017-11-30T18:34:05.917Z,15.70
2017-11-30T18:36:32.670Z,16.90
2017-11-30T18:38:59.262Z,16.77
2017-11-30T18:41:25.999Z,16.70
2017-11-30T18:43:52.595Z,15.90
2017-11-30T18:46:19.182Z,16.27
2017-11-30T18:48:45.787Z,15.90
2017-11-30T18:51:12.374Z,15.30
2017-11-30T18:53:38.962Z,16.87
2017-11-30T18:56:05.587Z,15.63
2017-11-30T18:58:32.179Z,17.17
2017-11-30T19:00:58.778Z,16.47
2017-11-30T19:03:25.388Z,17.80
2017-11-30T19:05:51.978Z,16.97
2017-11-30T19:08:18.569Z,15.20
2017-11-30T19:10:45.175Z,18.08
2017-11-30T19:13:11.775Z,14.77
2017-11-30T19:15:38.371Z,14.47
2017-11-30T19:18:05.031Z,14.73
2017-11-30T19:20:31.632Z,15.67
2017-11-30T19:22:58.218Z,14.83
2017-11-30T19:25:24.824Z,15.30
2017-11-30T19:27:51.410Z,15.03
2017-11-30T19:30:17.999Z,14.80
2017-11-30T19:32:44.598Z,14.70
2017-11-30T19:35:11.196Z,15.40
2017-11-30T19:37:37.823Z,15.20
2017-11-30T19:40:04.475Z,14.93
2017-11-30T19:42:31.055Z,14.87
2017-11-30T19:44:57.647Z,17.40
2017-11-30T19:47:24.253Z,19.27
2017-11-30T19:49:50.849Z,21.10
2017-11-30T19:52:17.442Z,19.20
2017-11-30T19:54:44.098Z,19.60
2017-11-30T19:57:10.718Z,20.50
2017-11-30T19:59:37.324Z,20.00
2017-11-30T20:02:03.935Z,17.90
2017-11-30T20:04:30.522Z,16.07
2017-11-30T20:06:57.114Z,15.57
2017-11-30T20:09:23.730Z,16.60
2017-11-30T20:11:50.314Z,16.50
2017-11-30T20:14:16.918Z,16.87
2017-11-30T20:16:43.534Z,17.07
2017-11-30T20:19:10.835Z,17.00
2017-11-30T20:21:37.435Z,17.50
2017-11-30T20:24:04.042Z,17.40
2017-11-30T20:26:30.626Z,15.63
2017-11-30T20:28:57.219Z,15.80
2017-11-30T20:31:23.818Z,14.97
2017-11-30T20:33:50.427Z,15.87
2017-11-30T20:36:17.014Z,15.90
2017-11-30T20:38:43.627Z,15.80
2017-11-30T20:41:10.209Z,15.33
2017-11-30T20:43:36.805Z,14.90
2017-11-30T20:46:03.443Z,15.77
2017-11-30T20:48:30.034Z,15.93
2017-11-30T20:50:56.744Z,15.83
2017-11-30T20:53:23.370Z,15.53
2017-11-30T20:55:49.958Z,15.70
2017-11-30T20:58:16.559Z,14.40
2017-11-30T21:00:43.165Z,15.67
2017-11-30T21:03:09.762Z,14.73
2017-11-30T21:05:36.358Z,13.57
2017-11-30T21:08:03.038Z,13.00
2017-11-30T21:10:29.574Z,13.50
2017-11-30T21:12:56.175Z,14.90
2017-11-30T21:15:22.850Z,13.47
2017-11-30T21:17:49.477Z,14.87
2017-11-30T21:20:16.067Z,16.43
2017-11-30T21:22:42.677Z,16.40
2017-11-30T21:25:09.280Z,16.60
2017-11-30T21:27:35.870Z,17.10
2017-11-30T21:30:02.482Z,16.47
2017-11-30T21:32:29.075Z,16.77
2017-11-30T21:34:55.666Z,16.10
2017-11-30T21:37:22.269Z,14.87
2017-11-30T21:39:48.861Z,13.07
2017-11-30T21:42:15.450Z,14.20
2017-11-30T21:44:42.054Z,14.03
2017-11-30T21:47:08.657Z,14.23
2017-11-30T21:49:35.244Z,12.83
2017-11-30T21:52:01.921Z,14.03
2017-11-30T21:54:28.508Z,14.40
2017-11-30T21:56:55.091Z,14.70
2017-11-30T21:59:21.736Z,14.67
2017-11-30T22:01:48.341Z,15.43
2017-11-30T22:04:14.932Z,15.83
2017-11-30T22:06:41.535Z,15.00
2017-11-30T22:09:08.139Z,15.90
2017-11-30T22:11:34.739Z,15.43
2017-11-30T22:14:01.433Z,14.53
2017-11-30T22:16:28.022Z,15.20
2017-11-30T22:18:54.645Z,14.93
2017-11-30T22:21:21.242Z,14.77
2017-11-30T22:23:47.834Z,15.23
2017-11-30T22:26:14.430Z,14.63
2017-11-30T22:28:41.030Z,14.93
2017-11-30T22:31:07.636Z,14.60
2017-11-30T22:33:34.228Z,14.80
2017-11-30T22:36:00.842Z,14.10
2017-11-30T22:38:27.449Z,14.03
2017-11-30T22:40:54.034Z,14.50
2017-11-30T22:43:20.650Z,14.80
2017-11-30T22:45:47.242Z,14.50
2017-11-30T22:48:13.838Z,13.37
2017-11-30T22:50:40.453Z,13.70
2017-11-30T22:53:07.074Z,13.70
2017-11-30T22:55:33.666Z,14.00
2017-11-30T22:58:00.279Z,13.63
2017-11-30T23:00:32.751Z,13.53
2017-11-30T23:03:00.188Z,13.57
2017-11-30T23:05:26.782Z,14.50
2017-11-30T23:07:53.374Z,14.27
2017-11-30T23:10:19.978Z,14.30
2017-11-30T23:12:46.578Z,14.37
2017-11-30T23:15:13.170Z,13.93
2017-11-30T23:17:39.805Z,15.20
2017-11-30T23:20:06.399Z,14.40
2017-11-30T23:22:32.991Z,15.03
2017-11-30T23:24:59.618Z,14.80
2017-11-30T23:27:26.216Z,15.07
2017-11-30T23:29:52.814Z,15.90
2017-11-30T23:32:19.432Z,14.97
2017-11-30T23:34:46.017Z,15.70
2017-11-30T23:37:12.602Z,15.10
2017-11-30T23:39:39.200Z,14.40
2017-11-30T23:42:05.791Z,14.43
2017-11-30T23:44:32.377Z,15.17
2017-11-30T23:46:58.982Z,15.90
2017-11-30T23:49:25.572Z,15.00
2017-11-30T23:51:52.161Z,15.40
2017-11-30T23:54:18.757Z,15.57
2017-11-30T23:56:45.344Z,14.50
2017-11-30T23:59:11.938Z,14.30
